Meridian, Oklahoma
Current Conditions -  °F | °C
As of 8:12 PM on Thursday 18 Dec 2014 (Local Time) from KGOK Reporting Station
Haze Haze  
Wind Chill: 40°   Ceiling: 1600
Heat Index: 40°   Visibility: 5mi
Dew Point: 38°   Wind: 3mph
Humidity: 93%   Direction: 30°NNE
Pressure: 30.21"   Gusts: NA
Location:  35.84°N, 97.25°W
Report Text: KGOK 190212Z AUTO 03003KT 5SM BR FEW008 OVC016 04/03 A3021 RMK AO2 T00440033
Loading
Personal Weather Stations






























Interactive Weather Map New forecast layout! Learn more

10-Day Weather Forecast

Advertisements
Track Severe Weather on mobile